createdAt,value
2023-05-06T00:02:20.368Z,11.72
2023-05-06T00:07:24.518Z,11.54
2023-05-06T00:12:27.214Z,11.65
2023-05-06T00:17:29.904Z,11.49
2023-05-06T00:22:34.775Z,11.58
2023-05-06T00:27:37.451Z,11.50
2023-05-06T00:32:40.297Z,11.45
2023-05-06T00:37:46.133Z,11.37
2023-05-06T00:42:48.800Z,11.36
2023-05-06T00:47:51.571Z,11.32
2023-05-06T00:52:55.727Z,11.24
2023-05-06T00:57:58.490Z,11.46
2023-05-06T01:03:01.266Z,11.32
2023-05-06T01:08:12.517Z,11.21
2023-05-06T01:13:19.576Z,11.23
2023-05-06T01:18:24.391Z,11.31
2023-05-06T01:23:28.410Z,11.34
2023-05-06T01:28:31.054Z,11.35
2023-05-06T01:33:38.222Z,11.17
2023-05-06T01:38:55.288Z,11.08
2023-05-06T01:43:59.303Z,11.14
2023-05-06T01:49:05.376Z,11.24
2023-05-06T01:54:09.394Z,11.21
2023-05-06T01:59:12.088Z,11.19
2023-05-06T02:04:15.863Z,10.96
2023-05-06T02:09:20.526Z,10.93
2023-05-06T02:14:29.347Z,10.75
2023-05-06T02:19:33.323Z,11.00
2023-05-06T02:24:37.367Z,11.29
2023-05-06T02:29:40.054Z,10.97
2023-05-06T02:34:42.837Z,10.76
2023-05-06T02:39:47.268Z,11.15
2023-05-06T02:44:49.982Z,11.01
2023-05-06T02:49:52.663Z,11.03
2023-05-06T02:54:56.725Z,10.85
2023-05-06T02:59:59.548Z,10.97
2023-05-06T03:05:04.411Z,10.84
2023-05-06T03:10:10.340Z,11.01
2023-05-06T03:15:14.117Z,10.97
2023-05-06T03:20:16.844Z,10.86
2023-05-06T03:25:27.416Z,10.89
2023-05-06T03:30:31.303Z,10.86
2023-05-06T03:35:37.024Z,11.20
2023-05-06T03:40:41.318Z,11.12
2023-05-06T03:45:44.588Z,10.99
2023-05-06T03:50:47.838Z,11.14
2023-05-06T03:55:53.117Z,10.94
2023-05-06T04:00:56.122Z,10.86
2023-05-06T04:05:58.944Z,10.77
2023-05-06T04:11:06.894Z,10.75
2023-05-06T04:16:12.502Z,10.97
2023-05-06T04:21:19.292Z,11.04
2023-05-06T04:26:30.063Z,10.89
2023-05-06T04:31:34.354Z,11.02
2023-05-06T04:36:40.702Z,11.13
2023-05-06T04:42:05.785Z,11.07
2023-05-06T04:47:15.750Z,11.06
2023-05-06T04:52:23.104Z,11.30
2023-05-06T04:57:27.343Z,11.28
2023-05-06T05:02:31.531Z,11.36
2023-05-06T05:07:34.409Z,11.46
2023-05-06T05:12:38.739Z,11.37
2023-05-06T05:17:42.358Z,11.35
2023-05-06T05:22:45.460Z,11.59
2023-05-06T05:27:49.845Z,11.60
2023-05-06T05:32:54.136Z,11.58
2023-05-06T05:37:57.059Z,11.78
2023-05-06T05:43:01.550Z,11.87
2023-05-06T05:48:09.943Z,11.83
2023-05-06T05:53:13.121Z,11.87
2023-05-06T05:58:18.227Z,12.12
2023-05-06T06:03:21.281Z,11.80
2023-05-06T06:08:24.158Z,12.01
2023-05-06T06:13:29.962Z,12.12
2023-05-06T06:18:34.823Z,12.03
2023-05-06T06:23:38.645Z,12.06
2023-05-06T06:28:44.662Z,11.95
2023-05-06T06:33:47.499Z,12.22
2023-05-06T06:38:50.229Z,12.52
2023-05-06T06:43:54.266Z,12.70
2023-05-06T06:49:01.563Z,13.06
2023-05-06T06:54:04.430Z,13.13
2023-05-06T06:59:08.707Z,13.37
2023-05-06T07:04:11.420Z,13.66
2023-05-06T07:09:14.299Z,13.72
2023-05-06T07:14:18.326Z,14.04
2023-05-06T07:19:20.971Z,14.21
2023-05-06T07:24:23.894Z,14.05
2023-05-06T07:29:28.027Z,13.93
2023-05-06T07:34:30.741Z,14.90
2023-05-06T07:39:33.410Z,14.89
2023-05-06T07:44:37.706Z,15.00
2023-05-06T07:49:40.373Z,14.72
2023-05-06T07:54:43.031Z,14.78
2023-05-06T07:59:48.591Z,15.49
2023-05-06T08:04:51.849Z,15.69
2023-05-06T08:09:54.809Z,15.62
2023-05-06T08:14:58.840Z,15.18
2023-05-06T08:20:01.520Z,15.26
2023-05-06T08:25:04.365Z,15.99
2023-05-06T08:30:10.732Z,15.37
2023-05-06T08:35:13.959Z,16.09
2023-05-06T08:40:19.603Z,16.16
2023-05-06T08:45:24.175Z,15.92
2023-05-06T08:50:26.871Z,16.15
2023-05-06T08:55:29.691Z,16.59
2023-05-06T09:00:33.819Z,16.45
2023-05-06T09:05:36.494Z,16.64
2023-05-06T09:10:44.564Z,16.58
2023-05-06T09:15:49.642Z,16.68
2023-05-06T09:20:52.762Z,17.11
2023-05-06T09:25:55.882Z,17.08
2023-05-06T09:31:00.423Z,16.52
2023-05-06T09:36:03.175Z,17.43
2023-05-06T09:41:06.513Z,17.57
2023-05-06T09:46:10.733Z,17.88
2023-05-06T09:51:13.998Z,16.97
2023-05-06T09:56:17.192Z,17.82
2023-05-06T10:01:32.602Z,18.43
2023-05-06T10:06:41.086Z,18.18
2023-05-06T10:11:44.674Z,18.03
2023-05-06T10:16:49.819Z,17.48
2023-05-06T10:21:56.237Z,18.48
2023-05-06T10:26:58.724Z,18.85
2023-05-06T10:32:04.098Z,18.65
2023-05-06T10:37:07.147Z,19.01
2023-05-06T10:42:11.445Z,19.39
2023-05-06T10:47:15.440Z,19.36
2023-05-06T10:52:18.217Z,19.82
2023-05-06T10:57:26.852Z,19.36
2023-05-06T11:02:31.576Z,20.07
2023-05-06T11:07:34.421Z,19.48
2023-05-06T11:12:51.005Z,19.99
2023-05-06T11:17:56.888Z,20.20
2023-05-06T11:22:59.650Z,20.57
2023-05-06T11:28:02.294Z,20.44
2023-05-06T11:33:07.413Z,20.37
2023-05-06T11:38:10.402Z,20.54
2023-05-06T11:43:13.656Z,20.97
2023-05-06T11:48:18.715Z,20.78
2023-05-06T11:53:22.791Z,21.14
2023-05-06T11:58:26.833Z,21.50
2023-05-06T12:03:32.570Z,21.29
2023-05-06T12:08:37.035Z,21.68
2023-05-06T12:13:40.637Z,21.00
2023-05-06T12:18:44.775Z,22.11
2023-05-06T12:23:54.184Z,22.09
2023-05-06T12:29:07.866Z,20.71
2023-05-06T12:34:12.206Z,22.30
2023-05-06T12:39:15.122Z,22.06
2023-05-06T12:44:37.383Z,21.90
2023-05-06T12:49:51.693Z,22.14
2023-05-06T12:54:54.414Z,22.49
2023-05-06T12:59:57.251Z,21.57
2023-05-06T13:05:02.104Z,21.83
2023-05-06T13:10:06.069Z,21.73
2023-05-06T13:15:10.056Z,22.71
2023-05-06T13:20:14.493Z,22.69
2023-05-06T13:25:17.339Z,21.44
2023-05-06T13:30:19.999Z,22.05
2023-05-06T13:35:24.005Z,21.94
2023-05-06T13:40:26.700Z,21.82
2023-05-06T13:45:29.418Z,22.11
2023-05-06T13:50:35.415Z,21.41
2023-05-06T13:55:38.144Z,22.21
2023-05-06T14:00:40.867Z,22.30
2023-05-06T14:05:45.341Z,21.95
2023-05-06T14:10:48.207Z,20.16
2023-05-06T14:15:50.862Z,21.56
2023-05-06T14:20:54.851Z,21.78
2023-05-06T14:25:57.453Z,22.14
2023-05-06T14:31:00.064Z,22.20
2023-05-06T14:36:04.213Z,21.90
2023-05-06T14:41:06.910Z,21.56
2023-05-06T14:46:11.099Z,21.24
2023-05-06T14:51:15.124Z,21.07
2023-05-06T14:56:17.807Z,21.69
2023-05-06T15:01:20.647Z,21.82
2023-05-06T15:06:25.024Z,21.75
2023-05-06T15:11:27.699Z,21.84
2023-05-06T15:16:30.365Z,21.54
2023-05-06T15:21:34.413Z,21.41
2023-05-06T15:26:37.092Z,21.52
2023-05-06T15:31:40.835Z,21.20
2023-05-06T15:36:45.482Z,21.37
2023-05-06T15:41:48.600Z,21.28
2023-05-06T15:46:51.250Z,21.15
2023-05-06T15:51:55.256Z,21.32
2023-05-06T15:57:00.357Z,21.29
2023-05-06T16:07:10.429Z,21.23
2023-05-06T16:12:14.654Z,20.99
2023-05-06T16:17:17.553Z,21.14
2023-05-06T16:22:21.787Z,20.98
2023-05-06T16:27:27.339Z,21.22
2023-05-06T16:32:30.085Z,20.68
2023-05-06T16:37:34.155Z,20.86
2023-05-06T16:42:37.044Z,21.02
2023-05-06T16:47:39.910Z,20.55
2023-05-06T16:52:44.092Z,20.71
2023-05-06T16:57:46.778Z,20.74
2023-05-06T17:02:49.491Z,20.67
2023-05-06T17:07:53.519Z,20.73
2023-05-06T17:12:56.800Z,20.49
2023-05-06T17:17:59.558Z,20.42
2023-05-06T17:23:03.710Z,20.27
2023-05-06T17:28:06.405Z,20.13
2023-05-06T17:33:09.142Z,20.12
2023-05-06T17:38:14.529Z,20.03
2023-05-06T17:43:17.217Z,20.00
2023-05-06T17:48:19.903Z,19.74
2023-05-06T17:53:24.297Z,19.71
2023-05-06T17:58:27.077Z,19.60
2023-05-06T18:03:29.986Z,19.57
2023-05-06T18:08:34.118Z,19.43
2023-05-06T18:13:37.323Z,19.15
2023-05-06T18:18:39.985Z,19.14
2023-05-06T18:23:44.359Z,19.28
2023-05-06T18:28:47.042Z,18.99
2023-05-06T18:33:49.860Z,18.62
2023-05-06T18:38:53.904Z,18.10
2023-05-06T18:43:56.591Z,17.58
2023-05-06T18:49:00.735Z,17.41
2023-05-06T18:54:04.821Z,17.19
2023-05-06T18:59:08.965Z,16.79
2023-05-06T19:04:11.678Z,16.52
2023-05-06T19:09:15.878Z,16.40
2023-05-06T19:14:18.550Z,16.01
2023-05-06T19:19:21.242Z,16.32
2023-05-06T19:24:25.324Z,16.30
2023-05-06T19:29:28.015Z,16.21
2023-05-06T19:34:30.715Z,16.35
2023-05-06T19:39:34.758Z,15.98
2023-05-06T19:44:37.418Z,16.14
2023-05-06T19:49:40.068Z,16.24
2023-05-06T19:54:44.194Z,15.99
2023-05-06T19:59:47.152Z,16.03
2023-05-06T20:04:49.837Z,15.99
2023-05-06T20:09:55.770Z,15.97
2023-05-06T20:14:58.563Z,15.95
2023-05-06T20:20:09.223Z,15.62
2023-05-06T20:25:15.968Z,15.58
2023-05-06T20:30:18.731Z,15.55
2023-05-06T20:35:21.461Z,15.80
2023-05-06T20:40:25.479Z,15.65
2023-05-06T20:45:28.420Z,15.59
2023-05-06T20:50:31.278Z,15.60
2023-05-06T20:55:35.389Z,15.43
2023-05-06T21:00:38.092Z,15.43
2023-05-06T21:05:40.923Z,15.48
2023-05-06T21:10:44.997Z,15.49
2023-05-06T21:15:47.644Z,15.63
2023-05-06T21:20:50.477Z,15.22
2023-05-06T21:25:54.591Z,15.30
2023-05-06T21:30:57.337Z,15.13
2023-05-06T21:36:00.163Z,15.26
2023-05-06T21:41:04.296Z,15.23
2023-05-06T21:46:07.002Z,15.08
2023-05-06T21:51:09.692Z,15.04
2023-05-06T21:56:13.745Z,14.98
2023-05-06T22:01:16.788Z,14.94
2023-05-06T22:06:19.528Z,14.92
2023-05-06T22:11:24.731Z,14.79
2023-05-06T22:16:27.469Z,14.75
2023-05-06T22:21:30.385Z,14.89
2023-05-06T22:26:34.527Z,14.70
2023-05-06T22:31:37.339Z,14.94
2023-05-06T22:36:40.104Z,14.57
2023-05-06T22:41:44.594Z,14.64
2023-05-06T22:46:47.340Z,14.70
2023-05-06T22:51:50.176Z,14.56
2023-05-06T22:56:54.256Z,14.46
2023-05-06T23:01:56.959Z,14.81
2023-05-06T23:06:59.648Z,14.82
2023-05-06T23:12:03.780Z,14.85
2023-05-06T23:17:07.130Z,14.77
2023-05-06T23:22:09.842Z,14.76
2023-05-06T23:27:13.911Z,14.83
2023-05-06T23:32:16.633Z,14.81
2023-05-06T23:37:19.459Z,14.69
2023-05-06T23:42:25.450Z,14.64
2023-05-06T23:47:28.406Z,14.63
2023-05-06T23:52:31.284Z,14.73
2023-05-06T23:57:35.358Z,14.57
